createdAt,value
2022-08-06T00:02:25.972Z,12.28
2022-08-06T00:05:01.656Z,12.29
2022-08-06T00:07:45.048Z,12.19
2022-08-06T00:10:19.106Z,12.15
2022-08-06T00:12:47.992Z,12.22
2022-08-06T00:15:19.838Z,12.16
2022-08-06T00:18:06.351Z,12.16
2022-08-06T00:20:33.573Z,12.11
2022-08-06T00:23:16.679Z,12.09
2022-08-06T00:25:51.647Z,12.11
2022-08-06T00:28:31.866Z,12.01
2022-08-06T00:31:09.884Z,12.03
2022-08-06T00:33:49.982Z,11.92
2022-08-06T00:36:24.933Z,11.86
2022-08-06T00:38:55.999Z,11.78
2022-08-06T00:41:27.045Z,11.88
2022-08-06T00:44:00.024Z,11.83
2022-08-06T00:46:29.781Z,11.78
2022-08-06T00:48:57.392Z,11.80
2022-08-06T00:51:25.344Z,11.80
2022-08-06T00:54:10.707Z,11.75
2022-08-06T00:56:37.669Z,11.72
2022-08-06T00:59:10.750Z,11.75
2022-08-06T01:01:50.147Z,11.60
2022-08-06T01:04:19.200Z,11.68
2022-08-06T01:06:54.863Z,11.66
2022-08-06T01:09:25.685Z,11.65
2022-08-06T01:11:52.620Z,11.64
2022-08-06T01:14:38.216Z,11.64
2022-08-06T01:17:34.110Z,11.61
2022-08-06T01:21:58.068Z,11.60
2022-08-06T01:23:39.859Z,11.60
2022-08-06T01:27:14.962Z,11.54
2022-08-06T01:29:52.168Z,11.55
2022-08-06T01:32:28.709Z,11.50
2022-08-06T01:35:05.379Z,11.49
2022-08-06T01:38:11.493Z,11.46
2022-08-06T01:40:41.113Z,11.45
2022-08-06T01:43:23.049Z,11.41
2022-08-06T01:46:02.327Z,11.37
2022-08-06T01:48:31.915Z,11.35
2022-08-06T01:51:02.759Z,11.32
2022-08-06T01:53:47.511Z,11.28
2022-08-06T01:56:55.943Z,11.29
2022-08-06T01:59:23.105Z,11.30
2022-08-06T02:01:55.473Z,11.31
2022-08-06T02:04:29.039Z,11.31
2022-08-06T02:06:58.328Z,11.25
2022-08-06T02:09:33.782Z,11.23
2022-08-06T02:12:17.580Z,11.18
2022-08-06T02:15:22.092Z,11.18
2022-08-06T02:18:06.456Z,11.15
2022-08-06T02:20:48.249Z,11.13
2022-08-06T02:23:25.304Z,11.09
2022-08-06T02:26:01.756Z,11.06
2022-08-06T02:28:31.068Z,11.05
2022-08-06T02:30:59.717Z,10.98
2022-08-06T02:34:01.403Z,10.98
2022-08-06T02:36:30.033Z,10.95
2022-08-06T02:39:09.082Z,10.98
2022-08-06T02:42:05.179Z,10.91
2022-08-06T02:44:45.993Z,10.87
2022-08-06T02:47:55.432Z,10.88
2022-08-06T02:50:36.731Z,10.89
2022-08-06T02:53:24.751Z,10.82
2022-08-06T02:55:58.023Z,10.85
2022-08-06T02:58:57.935Z,10.82
2022-08-06T03:01:42.957Z,10.81
2022-08-06T03:04:12.042Z,10.81
2022-08-06T03:06:42.830Z,10.78
2022-08-06T03:09:15.128Z,10.77
2022-08-06T03:11:47.484Z,10.76
2022-08-06T03:15:04.021Z,10.73
2022-08-06T03:17:06.441Z,10.70
2022-08-06T03:19:56.454Z,10.70
2022-08-06T03:22:35.792Z,10.72
2022-08-06T03:25:14.139Z,10.70
2022-08-06T03:27:45.064Z,10.64
2022-08-06T03:30:30.434Z,10.64
2022-08-06T03:33:07.686Z,10.63
2022-08-06T03:35:54.322Z,10.60
2022-08-06T03:38:28.158Z,10.61
2022-08-06T03:40:58.533Z,10.61
2022-08-06T03:43:28.613Z,10.60
2022-08-06T03:46:18.680Z,10.58
2022-08-06T03:48:46.627Z,10.59
2022-08-06T03:51:50.519Z,10.56
2022-08-06T03:54:09.704Z,10.56
2022-08-06T03:56:46.538Z,10.56
2022-08-06T03:59:20.314Z,10.57
2022-08-06T04:01:50.790Z,10.53
2022-08-06T04:04:26.834Z,10.51
2022-08-06T04:06:57.310Z,10.54
2022-08-06T04:09:33.112Z,10.50
2022-08-06T04:12:36.574Z,10.54
2022-08-06T04:14:56.044Z,10.49
2022-08-06T04:17:24.735Z,10.52
2022-08-06T04:19:52.915Z,10.50
2022-08-06T04:23:08.894Z,10.53
2022-08-06T04:25:13.003Z,10.54
2022-08-06T04:27:53.899Z,10.52
2022-08-06T04:30:27.415Z,10.54
2022-08-06T04:33:00.675Z,10.55
2022-08-06T04:36:07.527Z,10.53
2022-08-06T04:38:26.805Z,10.59
2022-08-06T04:40:57.895Z,10.59
2022-08-06T04:43:38.757Z,10.59
2022-08-06T04:46:18.437Z,10.63
2022-08-06T04:48:50.852Z,10.64
2022-08-06T04:52:34.154Z,10.66
2022-08-06T04:54:13.090Z,10.66
2022-08-06T04:56:48.354Z,10.68
2022-08-06T04:59:18.141Z,10.72
2022-08-06T05:01:56.686Z,10.74
2022-08-06T05:04:28.073Z,10.82
2022-08-06T05:07:29.059Z,10.83
2022-08-06T05:10:07.495Z,10.86
2022-08-06T05:12:45.011Z,10.89
2022-08-06T05:15:21.974Z,10.94
2022-08-06T05:18:15.057Z,10.99
2022-08-06T05:20:59.575Z,11.03
2022-08-06T05:23:46.587Z,11.06
2022-08-06T05:26:25.166Z,11.12
2022-08-06T05:28:54.435Z,11.18
2022-08-06T05:31:40.931Z,11.25
2022-08-06T05:34:13.879Z,11.30
2022-08-06T05:36:43.788Z,11.35
2022-08-06T05:39:56.496Z,11.41
2022-08-06T05:41:59.879Z,11.48
2022-08-06T05:44:29.756Z,11.55
2022-08-06T05:47:11.621Z,11.60
2022-08-06T05:49:56.314Z,11.67
2022-08-06T05:52:48.365Z,11.73
2022-08-06T05:55:40.699Z,11.81
2022-08-06T05:58:15.377Z,11.84
2022-08-06T06:00:44.801Z,11.88
2022-08-06T06:03:24.864Z,12.01
2022-08-06T06:06:04.143Z,12.05
2022-08-06T06:08:39.950Z,12.11
2022-08-06T06:11:55.664Z,12.30
2022-08-06T06:14:45.816Z,12.43
2022-08-06T06:18:00.077Z,12.62
2022-08-06T06:21:18.038Z,12.77
2022-08-06T06:23:56.059Z,12.97
2022-08-06T06:27:42.337Z,13.54
2022-08-06T06:30:39.296Z,14.31
2022-08-06T06:33:36.895Z,15.14
2022-08-06T06:36:20.017Z,15.87
2022-08-06T06:39:11.741Z,15.79
2022-08-06T06:41:49.006Z,16.97
2022-08-06T06:45:03.470Z,17.52
2022-08-06T06:47:59.851Z,18.14
2022-08-06T06:50:52.521Z,18.61
2022-08-06T06:53:21.041Z,18.98
2022-08-06T06:55:58.895Z,19.25
2022-08-06T06:58:47.192Z,19.62
2022-08-06T07:01:27.923Z,19.97
2022-08-06T07:04:01.582Z,20.29
2022-08-06T07:06:44.152Z,20.32
2022-08-06T07:09:41.722Z,20.64
2022-08-06T07:12:14.464Z,20.88
2022-08-06T07:14:58.274Z,21.09
2022-08-06T07:17:44.705Z,21.38
2022-08-06T07:20:28.871Z,21.02
2022-08-06T07:24:07.598Z,21.57
2022-08-06T07:25:53.913Z,21.63
2022-08-06T07:28:28.974Z,21.79
2022-08-06T07:31:04.719Z,22.20
2022-08-06T07:33:59.842Z,22.21
2022-08-06T07:36:37.554Z,22.53
2022-08-06T07:39:14.629Z,22.59
2022-08-06T07:42:06.772Z,22.06
2022-08-06T07:44:54.955Z,22.33
2022-08-06T07:47:46.308Z,22.39
2022-08-06T07:50:18.142Z,23.05
2022-08-06T07:52:54.499Z,22.82
2022-08-06T07:55:26.269Z,22.33
2022-08-06T07:58:00.327Z,22.34
2022-08-06T08:00:29.071Z,22.39
2022-08-06T08:03:43.255Z,22.15
2022-08-06T08:06:21.582Z,23.12
2022-08-06T08:08:56.819Z,23.33
2022-08-06T08:11:38.194Z,22.95
2022-08-06T08:14:18.960Z,22.41
2022-08-06T08:16:46.817Z,22.62
2022-08-06T08:19:35.260Z,22.69
2022-08-06T08:22:13.882Z,22.76
2022-08-06T08:24:54.340Z,23.40
2022-08-06T08:27:23.744Z,23.52
2022-08-06T08:29:56.796Z,23.74
2022-08-06T08:32:25.313Z,23.92
2022-08-06T08:34:54.416Z,23.66
2022-08-06T08:37:23.566Z,24.35
2022-08-06T08:39:50.653Z,24.74
2022-08-06T08:42:38.170Z,24.46
2022-08-06T08:45:08.884Z,24.63
2022-08-06T08:47:52.983Z,24.57
2022-08-06T08:50:29.106Z,23.91
2022-08-06T08:53:11.508Z,24.12
2022-08-06T08:57:11.238Z,24.86
2022-08-06T08:58:40.302Z,25.25
2022-08-06T09:01:51.697Z,25.43
2022-08-06T09:03:59.374Z,25.57
2022-08-06T09:06:30.776Z,25.17
2022-08-06T09:09:05.305Z,25.45
2022-08-06T09:12:05.780Z,25.98
2022-08-06T09:14:22.927Z,25.79
2022-08-06T09:17:02.267Z,25.95
2022-08-06T09:19:37.677Z,25.88
2022-08-06T09:22:08.979Z,26.10
2022-08-06T09:24:39.303Z,25.85
2022-08-06T09:27:45.323Z,26.26
2022-08-06T09:30:25.693Z,26.58
2022-08-06T09:33:03.704Z,26.80
2022-08-06T09:35:44.616Z,26.38
2022-08-06T09:38:16.178Z,26.52
2022-08-06T09:41:06.772Z,26.29
2022-08-06T09:44:03.976Z,26.50
2022-08-06T09:47:01.998Z,26.52
2022-08-06T09:49:48.998Z,26.21
2022-08-06T09:52:25.656Z,26.56
2022-08-06T09:54:55.021Z,26.81
2022-08-06T09:57:34.717Z,26.90
2022-08-06T10:00:14.255Z,26.42
2022-08-06T10:02:50.634Z,25.95
2022-08-06T10:05:20.549Z,26.52
2022-08-06T10:08:02.094Z,26.71
2022-08-06T10:10:49.797Z,27.16
2022-08-06T10:13:31.039Z,27.01
2022-08-06T10:16:20.554Z,27.14
2022-08-06T10:18:55.526Z,27.42
2022-08-06T10:21:42.420Z,27.70
2022-08-06T10:24:26.114Z,27.14
2022-08-06T10:27:14.335Z,27.71
2022-08-06T10:29:48.297Z,27.46
2022-08-06T10:32:30.637Z,27.73
2022-08-06T10:35:04.685Z,27.84
2022-08-06T10:37:49.011Z,27.75
2022-08-06T10:40:30.843Z,27.29
2022-08-06T10:43:02.074Z,27.35
2022-08-06T10:45:48.818Z,25.90
2022-08-06T10:49:00.773Z,26.81
2022-08-06T10:51:07.956Z,27.08
2022-08-06T10:54:00.891Z,27.59
2022-08-06T10:56:28.076Z,27.39
2022-08-06T10:58:59.818Z,27.24
2022-08-06T11:01:47.120Z,27.52
2022-08-06T11:05:08.114Z,26.66
2022-08-06T11:08:42.947Z,27.33
2022-08-06T11:11:39.752Z,26.79
2022-08-06T11:14:18.990Z,27.17
2022-08-06T11:16:58.525Z,27.47
2022-08-06T11:19:56.707Z,26.94
2022-08-06T11:22:54.093Z,27.20
2022-08-06T11:25:44.857Z,26.94
2022-08-06T11:28:17.233Z,26.80
2022-08-06T11:30:51.401Z,27.57
2022-08-06T11:33:33.836Z,27.18
2022-08-06T11:36:09.478Z,26.56
2022-08-06T11:38:50.625Z,27.01
2022-08-06T11:41:54.548Z,26.76
2022-08-06T11:44:17.175Z,27.16
2022-08-06T11:46:48.217Z,27.10
2022-08-06T11:49:42.919Z,27.03
2022-08-06T11:52:34.308Z,26.98
2022-08-06T11:55:12.969Z,26.69
2022-08-06T11:58:13.568Z,26.20
2022-08-06T12:00:58.302Z,25.99
2022-08-06T12:03:44.540Z,26.09
2022-08-06T12:06:25.955Z,25.91
2022-08-06T12:09:21.283Z,25.94
2022-08-06T12:11:51.532Z,26.14
2022-08-06T12:14:55.250Z,25.70
2022-08-06T12:17:44.528Z,25.08
2022-08-06T12:20:13.311Z,24.82
2022-08-06T12:23:21.044Z,24.47
2022-08-06T12:25:49.918Z,24.36
2022-08-06T12:28:20.304Z,24.41
2022-08-06T12:30:50.704Z,24.53
2022-08-06T12:33:20.895Z,23.90
2022-08-06T12:36:03.474Z,24.34
2022-08-06T12:38:32.920Z,24.68
2022-08-06T12:41:09.196Z,23.93
2022-08-06T12:43:45.985Z,24.31
2022-08-06T12:46:19.876Z,24.22
2022-08-06T12:48:51.856Z,24.51
2022-08-06T12:51:27.543Z,24.42
2022-08-06T12:54:02.318Z,24.39
2022-08-06T12:56:32.985Z,24.28
2022-08-06T12:59:16.212Z,24.34
2022-08-06T13:02:10.655Z,23.54
2022-08-06T13:04:44.654Z,23.99
2022-08-06T13:07:14.981Z,24.43
2022-08-06T13:10:17.186Z,24.28
2022-08-06T13:14:03.433Z,24.48
2022-08-06T13:15:23.230Z,24.56
2022-08-06T13:18:40.563Z,24.58
2022-08-06T13:21:04.729Z,24.64
2022-08-06T13:23:39.045Z,24.46
2022-08-06T13:26:26.317Z,24.31
2022-08-06T13:30:34.536Z,24.45
2022-08-06T13:32:19.179Z,24.00
2022-08-06T13:34:57.685Z,24.34
2022-08-06T13:38:16.161Z,24.45
2022-08-06T13:40:56.974Z,24.20
2022-08-06T13:43:53.401Z,24.32
2022-08-06T13:46:27.757Z,24.23
2022-08-06T13:49:01.834Z,24.32
2022-08-06T13:51:35.561Z,24.36
2022-08-06T13:54:16.386Z,23.94
2022-08-06T13:56:52.635Z,24.15
2022-08-06T13:59:40.189Z,24.12
2022-08-06T14:02:09.042Z,23.97
2022-08-06T14:04:36.262Z,24.16
2022-08-06T14:07:03.219Z,24.18
2022-08-06T14:09:41.278Z,24.16
2022-08-06T14:12:18.540Z,24.12
2022-08-06T14:14:47.930Z,23.90
2022-08-06T14:17:15.386Z,24.12
2022-08-06T14:20:15.093Z,24.13
2022-08-06T14:22:37.192Z,23.69
2022-08-06T14:25:07.877Z,23.69
2022-08-06T14:27:43.715Z,23.47
2022-08-06T14:30:26.106Z,23.39
2022-08-06T14:33:09.918Z,23.51
2022-08-06T14:35:50.245Z,23.39
2022-08-06T14:38:20.356Z,23.31
2022-08-06T14:41:09.676Z,23.63
2022-08-06T14:43:57.764Z,23.47
2022-08-06T14:46:31.210Z,23.61
2022-08-06T14:49:05.358Z,23.54
2022-08-06T14:51:37.833Z,23.63
2022-08-06T14:54:31.276Z,23.71
2022-08-06T14:57:14.795Z,23.66
2022-08-06T14:59:49.139Z,23.55
2022-08-06T15:02:26.694Z,23.65
2022-08-06T15:04:55.130Z,23.81
2022-08-06T15:07:26.917Z,23.77
2022-08-06T15:10:05.291Z,23.76
2022-08-06T15:12:55.687Z,23.76
2022-08-06T15:15:36.457Z,23.81
2022-08-06T15:18:25.315Z,23.76
2022-08-06T15:21:00.969Z,23.76
2022-08-06T15:23:31.043Z,23.65
2022-08-06T15:26:41.921Z,23.59
2022-08-06T15:29:10.772Z,23.20
2022-08-06T15:31:42.590Z,23.34
2022-08-06T15:34:12.645Z,23.08
2022-08-06T15:36:59.140Z,23.03
2022-08-06T15:39:51.452Z,23.07
2022-08-06T15:42:18.890Z,22.70
2022-08-06T15:44:46.766Z,22.85
2022-08-06T15:47:14.749Z,22.76
2022-08-06T15:50:00.556Z,22.59
2022-08-06T15:52:31.178Z,22.38
2022-08-06T15:55:01.113Z,22.12
2022-08-06T15:58:07.110Z,21.98
2022-08-06T16:00:18.416Z,22.08
2022-08-06T16:02:50.203Z,21.84
2022-08-06T16:05:32.988Z,21.97
2022-08-06T16:08:22.980Z,21.77
2022-08-06T16:11:00.249Z,21.78
2022-08-06T16:13:27.180Z,21.57
2022-08-06T16:15:54.213Z,21.37
2022-08-06T16:18:30.267Z,21.41
2022-08-06T16:20:58.045Z,21.55
2022-08-06T16:23:56.400Z,21.41
2022-08-06T16:26:29.825Z,21.33
2022-08-06T16:29:07.522Z,21.09
2022-08-06T16:31:37.662Z,21.24
2022-08-06T16:34:15.413Z,21.15
2022-08-06T16:36:44.504Z,21.20
2022-08-06T16:39:16.165Z,21.04
2022-08-06T16:42:09.243Z,21.13
2022-08-06T16:45:00.404Z,21.12
2022-08-06T16:47:27.077Z,21.04
2022-08-06T16:50:18.772Z,21.02
2022-08-06T16:54:07.929Z,20.97
2022-08-06T16:55:42.287Z,20.93
2022-08-06T16:58:16.777Z,20.81
2022-08-06T17:01:00.176Z,20.86
2022-08-06T17:03:45.998Z,20.85
2022-08-06T17:06:17.596Z,20.79
2022-08-06T17:08:53.819Z,20.77
2022-08-06T17:11:45.411Z,20.49
2022-08-06T17:14:13.319Z,20.43
2022-08-06T17:16:42.309Z,20.52
2022-08-06T17:19:17.351Z,20.47
2022-08-06T17:21:58.472Z,20.57
2022-08-06T17:27:43.160Z,20.57
2022-08-06T17:30:14.612Z,20.53
2022-08-06T17:36:32.207Z,20.50
2022-08-06T17:38:17.899Z,20.55
2022-08-06T17:40:49.176Z,20.54
2022-08-06T17:43:22.860Z,20.44
2022-08-06T17:46:26.072Z,20.48
2022-08-06T17:48:53.992Z,20.48
2022-08-06T17:51:22.499Z,20.27
2022-08-06T17:53:53.734Z,20.34
2022-08-06T17:56:30.745Z,20.19
2022-08-06T17:59:16.683Z,20.15
2022-08-06T18:01:49.127Z,20.07
2022-08-06T18:04:21.867Z,19.94
2022-08-06T18:06:55.906Z,19.92
2022-08-06T18:10:09.888Z,19.91
2022-08-06T18:12:12.330Z,19.78
2022-08-06T18:14:39.406Z,19.70
2022-08-06T18:17:16.071Z,19.55
2022-08-06T18:19:44.465Z,19.64
2022-08-06T18:22:20.991Z,19.47
2022-08-06T18:24:54.496Z,19.46
2022-08-06T18:27:54.177Z,19.44
2022-08-06T18:30:29.974Z,19.27
2022-08-06T18:33:09.821Z,19.30
2022-08-06T18:35:55.491Z,19.30
2022-08-06T18:38:31.006Z,19.23
2022-08-06T18:41:14.364Z,19.16
2022-08-06T18:43:48.876Z,19.23
2022-08-06T18:47:02.261Z,19.12
2022-08-06T18:49:20.437Z,18.96
2022-08-06T18:51:55.943Z,18.91
2022-08-06T18:54:24.703Z,18.94
2022-08-06T18:56:55.488Z,18.88
2022-08-06T18:59:28.530Z,18.82
2022-08-06T19:02:00.792Z,18.70
2022-08-06T19:04:30.054Z,18.71
2022-08-06T19:07:02.641Z,18.76
2022-08-06T19:09:34.673Z,18.69
2022-08-06T19:12:13.107Z,18.66
2022-08-06T19:14:48.328Z,18.62
2022-08-06T19:17:22.566Z,18.48
2022-08-06T19:20:20.655Z,18.48
2022-08-06T19:22:52.897Z,18.37
2022-08-06T19:25:22.332Z,18.26
2022-08-06T19:28:31.436Z,18.32
2022-08-06T19:30:45.678Z,18.21
2022-08-06T19:33:16.433Z,18.20
2022-08-06T19:36:11.817Z,18.11
2022-08-06T19:38:34.523Z,18.08
2022-08-06T19:41:02.642Z,18.06
2022-08-06T19:44:25.417Z,18.06
2022-08-06T19:46:30.575Z,17.85
2022-08-06T19:49:04.422Z,17.84
2022-08-06T19:52:02.169Z,17.88
2022-08-06T19:54:26.319Z,17.78
2022-08-06T19:57:08.465Z,17.69
2022-08-06T20:00:52.273Z,17.64
2022-08-06T20:02:26.464Z,17.56
2022-08-06T20:04:56.226Z,17.50
2022-08-06T20:07:27.850Z,17.52
2022-08-06T20:09:59.594Z,17.33
2022-08-06T20:12:32.020Z,17.29
2022-08-06T20:14:59.595Z,17.26
2022-08-06T20:17:45.692Z,17.27
2022-08-06T20:20:16.380Z,17.17
2022-08-06T20:22:44.576Z,17.06
2022-08-06T20:25:19.656Z,17.11
2022-08-06T20:29:07.843Z,17.01
2022-08-06T20:30:49.485Z,16.90
2022-08-06T20:33:24.175Z,16.90
2022-08-06T20:35:58.302Z,16.86
2022-08-06T20:38:40.073Z,16.80
2022-08-06T20:41:56.669Z,16.67
2022-08-06T20:44:08.559Z,16.63
2022-08-06T20:49:48.253Z,16.60
2022-08-06T20:52:17.844Z,16.49
2022-08-06T20:54:52.723Z,16.42
2022-08-06T20:57:27.234Z,16.40
2022-08-06T20:59:59.555Z,16.41
2022-08-06T21:02:32.087Z,16.37
2022-08-06T21:05:18.153Z,16.31
2022-08-06T21:07:56.819Z,16.26
2022-08-06T21:10:30.214Z,16.22
2022-08-06T21:13:02.180Z,16.11
2022-08-06T21:15:54.085Z,16.10
2022-08-06T21:18:21.759Z,15.80
2022-08-06T21:20:52.198Z,15.73
2022-08-06T21:23:26.281Z,15.74
2022-08-06T21:26:15.174Z,15.82
2022-08-06T21:28:52.169Z,15.71
2022-08-06T21:31:24.056Z,15.69
2022-08-06T21:33:54.534Z,15.56
2022-08-06T21:36:26.075Z,15.49
2022-08-06T21:38:59.040Z,15.43
2022-08-06T21:41:49.807Z,15.44
2022-08-06T21:44:17.616Z,15.27
2022-08-06T21:46:57.810Z,15.25
2022-08-06T21:50:03.932Z,15.19
2022-08-06T21:52:15.992Z,15.13
2022-08-06T21:54:53.051Z,14.96
2022-08-06T21:57:24.820Z,14.92
2022-08-06T21:59:53.204Z,14.93
2022-08-06T22:02:26.233Z,14.89
2022-08-06T22:04:59.035Z,14.92
2022-08-06T22:08:06.535Z,14.77
2022-08-06T22:10:19.275Z,14.93
2022-08-06T22:13:13.301Z,14.94
2022-08-06T22:15:47.080Z,14.90
2022-08-06T22:18:18.840Z,14.78
2022-08-06T22:20:55.413Z,14.86
2022-08-06T22:23:24.543Z,14.85
2022-08-06T22:25:51.888Z,14.80
2022-08-06T22:28:23.640Z,14.71
2022-08-06T22:31:04.450Z,14.58
2022-08-06T22:33:45.428Z,14.66
2022-08-06T22:36:34.070Z,14.61
2022-08-06T22:39:04.467Z,14.40
2022-08-06T22:41:42.877Z,14.43
2022-08-06T22:44:31.038Z,14.42
2022-08-06T22:47:05.388Z,14.49
2022-08-06T22:49:36.609Z,14.43
2022-08-06T22:52:04.766Z,14.35
2022-08-06T22:54:57.698Z,14.42
2022-08-06T22:57:24.399Z,14.38
2022-08-06T23:00:11.966Z,14.35
2022-08-06T23:02:38.696Z,14.26
2022-08-06T23:05:13.841Z,14.20
2022-08-06T23:07:53.622Z,14.25
2022-08-06T23:10:22.299Z,14.01
2022-08-06T23:12:49.383Z,14.03
2022-08-06T23:15:30.513Z,14.03
2022-08-06T23:18:08.251Z,14.04
2022-08-06T23:20:37.072Z,13.98
2022-08-06T23:23:09.542Z,13.95
2022-08-06T23:26:02.127Z,13.83
2022-08-06T23:28:29.316Z,13.86
2022-08-06T23:30:56.944Z,13.90
2022-08-06T23:33:23.866Z,13.80
2022-08-06T23:35:51.207Z,13.73
2022-08-06T23:38:31.733Z,13.74
2022-08-06T23:41:02.361Z,13.75
2022-08-06T23:43:42.904Z,13.57
2022-08-06T23:46:09.896Z,13.65
2022-08-06T23:48:36.998Z,13.67
2022-08-06T23:51:07.154Z,13.64
2022-08-06T23:54:07.914Z,13.44
2022-08-06T23:56:26.588Z,13.49
2022-08-06T23:58:56.890Z,13.49
